createdAt,value
2018-02-07T00:01:35.414Z,99612.84
2018-02-07T00:04:03.005Z,99615.31
2018-02-07T00:06:31.146Z,99615.67
2018-02-07T00:08:58.733Z,99611.89
2018-02-07T00:11:26.984Z,99612.05
2018-02-07T00:13:54.613Z,99611.66
2018-02-07T00:16:22.420Z,99611.00
2018-02-07T00:18:50.270Z,99612.92
2018-02-07T00:21:17.821Z,99617.49
2018-02-07T00:23:45.401Z,99614.31
2018-02-07T00:26:13.305Z,99615.45
2018-02-07T00:28:40.847Z,99612.55
2018-02-07T00:31:08.421Z,99610.74
2018-02-07T00:33:36.046Z,99615.55
2018-02-07T00:36:03.657Z,99605.80
2018-02-07T00:38:31.583Z,99605.41
2018-02-07T00:40:59.150Z,99609.16
2018-02-07T00:43:26.810Z,99609.06
2018-02-07T00:45:54.398Z,99612.05
2018-02-07T00:48:21.986Z,99610.70
2018-02-07T00:50:49.873Z,99609.31
2018-02-07T00:53:17.421Z,99604.76
2018-02-07T00:55:45.436Z,99604.93
2018-02-07T00:58:13.330Z,99613.63
2018-02-07T01:00:40.886Z,99608.66
2018-02-07T01:03:08.766Z,99611.63
2018-02-07T01:05:36.374Z,99610.27
2018-02-07T01:08:04.025Z,99604.54
2018-02-07T01:10:31.595Z,99602.74
2018-02-07T01:12:59.185Z,99586.39
2018-02-07T01:15:28.428Z,99582.83
2018-02-07T01:17:56.003Z,99590.82
2018-02-07T01:20:23.589Z,99602.94
2018-02-07T01:22:51.149Z,99598.55
2018-02-07T01:25:18.784Z,99592.47
2018-02-07T01:27:46.343Z,99586.70
2018-02-07T01:30:14.025Z,99575.30
2018-02-07T01:32:41.908Z,99574.80
2018-02-07T01:35:09.805Z,99573.68
2018-02-07T01:37:37.533Z,99571.17
2018-02-07T01:40:05.141Z,99575.26
2018-02-07T01:42:32.951Z,99571.48
2018-02-07T01:45:00.742Z,99573.26
2018-02-07T01:47:28.460Z,99568.05
2018-02-07T01:49:56.415Z,99563.39
2018-02-07T01:52:23.993Z,99551.45
2018-02-07T01:54:51.553Z,99554.98
2018-02-07T01:57:19.128Z,99553.31
2018-02-07T01:59:46.766Z,99549.09
2018-02-07T02:02:14.384Z,99544.20
2018-02-07T02:04:41.983Z,99539.75
2018-02-07T02:07:09.583Z,99543.41
2018-02-07T02:09:37.334Z,99536.39
2018-02-07T02:12:04.937Z,99540.92
2018-02-07T02:14:32.504Z,99537.36
2018-02-07T02:17:00.316Z,99543.39
2018-02-07T02:19:27.921Z,99541.92
2018-02-07T02:21:55.513Z,99540.55
2018-02-07T02:24:23.271Z,99543.28
2018-02-07T02:26:50.835Z,99535.52
2018-02-07T02:29:18.404Z,99538.52
2018-02-07T02:31:46.036Z,99532.67
2018-02-07T02:34:13.657Z,99533.69
2018-02-07T02:36:41.331Z,99540.16
2018-02-07T02:39:09.078Z,99542.74
2018-02-07T02:41:36.641Z,99540.02
2018-02-07T02:44:04.280Z,99526.45
2018-02-07T02:46:32.341Z,99529.34
2018-02-07T02:49:00.151Z,99529.52
2018-02-07T02:51:27.717Z,99521.78
2018-02-07T02:53:55.485Z,99524.36
2018-02-07T02:56:23.324Z,99522.66
2018-02-07T02:58:51.389Z,99521.55
2018-02-07T03:01:19.277Z,99520.34
2018-02-07T03:03:47.059Z,99521.19
2018-02-07T03:06:14.795Z,99522.48
2018-02-07T03:08:42.490Z,99511.68
2018-02-07T03:11:10.146Z,99513.93
2018-02-07T03:13:37.839Z,99518.73
2018-02-07T03:16:05.549Z,99517.83
2018-02-07T03:18:33.290Z,99515.81
2018-02-07T03:21:00.861Z,99514.94
2018-02-07T03:23:28.486Z,99512.47
2018-02-07T03:25:56.050Z,99506.01
2018-02-07T03:28:23.610Z,99496.88
2018-02-07T03:30:51.457Z,99495.23
2018-02-07T03:33:19.138Z,99486.89
2018-02-07T03:35:46.779Z,99479.84
2018-02-07T03:38:14.402Z,99501.14
2018-02-07T03:40:41.962Z,99495.69
2018-02-07T03:43:09.521Z,99500.00
2018-02-07T03:45:37.213Z,99497.13
2018-02-07T03:48:04.929Z,99488.05
2018-02-07T03:50:32.804Z,99472.25
2018-02-07T03:53:00.676Z,99463.77
2018-02-07T03:55:28.403Z,99467.96
2018-02-07T03:57:55.973Z,99475.83
2018-02-07T04:00:23.774Z,99481.69
2018-02-07T04:02:51.551Z,99498.72
2018-02-07T04:05:19.312Z,99499.39
2018-02-07T04:07:47.020Z,99504.89
2018-02-07T04:10:14.577Z,99493.76
2018-02-07T04:12:42.468Z,99503.78
2018-02-07T04:15:10.034Z,99505.09
2018-02-07T04:17:38.599Z,99530.14
2018-02-07T04:20:06.425Z,99531.23
2018-02-07T04:22:34.168Z,99528.17
2018-02-07T04:25:01.732Z,99535.69
2018-02-07T04:27:29.561Z,99529.50
2018-02-07T04:29:57.281Z,99526.28
2018-02-07T04:32:24.911Z,99525.08
2018-02-07T04:34:52.635Z,99514.01
2018-02-07T04:37:20.510Z,99514.25
2018-02-07T04:39:48.244Z,99507.72
2018-02-07T04:42:15.801Z,99500.94
2018-02-07T04:44:43.396Z,99504.00
2018-02-07T04:47:11.038Z,99507.66
2018-02-07T04:49:38.848Z,99498.70
2018-02-07T04:52:06.425Z,99492.32
2018-02-07T04:54:34.046Z,99501.07
2018-02-07T04:57:01.796Z,99498.62
2018-02-07T04:59:29.361Z,99481.04
2018-02-07T05:01:57.066Z,99474.31
2018-02-07T05:04:24.854Z,99483.33
2018-02-07T05:06:52.417Z,99492.59
2018-02-07T05:09:19.978Z,99486.77
2018-02-07T05:11:48.808Z,99490.63
2018-02-07T05:14:16.525Z,99494.02
2018-02-07T05:16:44.083Z,99492.22
2018-02-07T05:19:11.678Z,99462.14
2018-02-07T05:21:39.290Z,99495.38
2018-02-07T05:24:06.874Z,99500.14
2018-02-07T05:26:34.433Z,99500.05
2018-02-07T05:29:02.233Z,99508.30
2018-02-07T05:31:29.966Z,99507.50
2018-02-07T05:33:57.660Z,99508.91
2018-02-07T05:36:25.383Z,99505.65
2018-02-07T05:38:52.947Z,99491.09
2018-02-07T05:41:20.764Z,99485.73
2018-02-07T05:43:48.322Z,99481.95
2018-02-07T05:46:16.060Z,99478.77
2018-02-07T05:48:43.879Z,99474.48
2018-02-07T05:51:11.508Z,99463.35
2018-02-07T05:53:39.093Z,99448.83
2018-02-07T05:56:06.689Z,99466.94
2018-02-07T05:58:34.266Z,99460.75
2018-02-07T06:01:02.064Z,99468.20
2018-02-07T06:03:30.683Z,99470.50
2018-02-07T06:05:58.237Z,99461.22
2018-02-07T06:08:25.789Z,99463.34
2018-02-07T06:10:53.358Z,99462.39
2018-02-07T06:13:20.905Z,99456.48
2018-02-07T06:15:48.779Z,99459.51
2018-02-07T06:18:16.500Z,99457.08
2018-02-07T06:20:44.123Z,99452.16
2018-02-07T06:23:11.758Z,99448.52
2018-02-07T06:25:39.316Z,99448.56
2018-02-07T06:28:06.873Z,99444.46
2018-02-07T06:30:34.433Z,99434.17
2018-02-07T06:33:02.096Z,99430.72
2018-02-07T06:35:29.657Z,99426.75
2018-02-07T06:37:57.269Z,99428.33
2018-02-07T06:40:24.829Z,99422.84
2018-02-07T06:42:52.381Z,99429.73
2018-02-07T06:45:20.191Z,99430.08
2018-02-07T06:47:47.749Z,99430.81
2018-02-07T06:50:15.526Z,99428.71
2018-02-07T06:52:43.220Z,99426.53
2018-02-07T06:55:11.062Z,99418.31
2018-02-07T06:57:39.552Z,99419.48
2018-02-07T07:00:07.114Z,99427.63
2018-02-07T07:02:34.922Z,99431.33
2018-02-07T07:05:02.489Z,99438.50
2018-02-07T07:07:30.256Z,99435.95
2018-02-07T07:09:57.817Z,99437.59
2018-02-07T07:12:25.429Z,99427.28
2018-02-07T07:14:53.210Z,99416.72
2018-02-07T07:17:20.819Z,99430.70
2018-02-07T07:19:49.281Z,99401.45
2018-02-07T07:22:17.138Z,99420.15
2018-02-07T07:24:45.377Z,99411.09
2018-02-07T07:27:12.927Z,99405.86
2018-02-07T07:29:40.546Z,99397.89
2018-02-07T07:32:08.274Z,99412.71
2018-02-07T07:34:36.060Z,99403.27
2018-02-07T07:37:03.621Z,99405.47
2018-02-07T07:39:31.180Z,99409.81
2018-02-07T07:41:59.116Z,99396.77
2018-02-07T07:44:26.671Z,99399.56
2018-02-07T07:46:54.297Z,99386.45
2018-02-07T07:49:21.850Z,99390.25
2018-02-07T07:51:49.558Z,99374.14
2018-02-07T07:54:17.276Z,99384.59
2018-02-07T07:56:44.829Z,99378.73
2018-02-07T07:59:12.390Z,99368.95
2018-02-07T08:01:39.949Z,99369.63
2018-02-07T08:04:07.563Z,99384.69
2018-02-07T08:06:35.122Z,99386.75
2018-02-07T08:09:02.910Z,99386.68
2018-02-07T08:11:30.469Z,99406.00
2018-02-07T08:13:58.136Z,99398.44
2018-02-07T08:16:25.746Z,99402.41
2018-02-07T08:18:53.339Z,99397.25
2018-02-07T08:21:21.304Z,99397.70
2018-02-07T08:23:49.119Z,99389.05
2018-02-07T08:26:16.673Z,99409.88
2018-02-07T08:28:44.455Z,99406.48
2018-02-07T08:31:12.169Z,99405.19
2018-02-07T08:33:39.749Z,99413.52
2018-02-07T08:36:07.509Z,99423.54
2018-02-07T08:38:35.528Z,99413.22
2018-02-07T08:41:03.095Z,99421.06
2018-02-07T08:43:30.760Z,99390.41
2018-02-07T08:45:58.329Z,99427.47
2018-02-07T08:48:26.018Z,99406.42
2018-02-07T08:50:53.585Z,99406.30
2018-02-07T08:53:21.123Z,99405.94
2018-02-07T08:55:48.931Z,99404.73
2018-02-07T08:58:16.516Z,99407.53
2018-02-07T09:00:44.070Z,99399.72
2018-02-07T09:03:11.626Z,99403.16
2018-02-07T09:05:39.189Z,99397.27
2018-02-07T09:08:06.912Z,99395.98
2018-02-07T09:10:34.508Z,99386.06
2018-02-07T09:13:02.236Z,99397.20
2018-02-07T09:15:29.997Z,99378.65
2018-02-07T09:17:57.715Z,99385.70
2018-02-07T09:20:25.282Z,99390.16
2018-02-07T09:22:52.826Z,99375.07
2018-02-07T09:25:20.553Z,99379.88
2018-02-07T09:27:48.128Z,99372.43
2018-02-07T09:30:15.686Z,99372.38
2018-02-07T09:32:43.330Z,99368.66
2018-02-07T09:35:10.863Z,99361.69
2018-02-07T09:37:38.577Z,99365.53
2018-02-07T09:40:06.161Z,99366.17
2018-02-07T09:42:33.965Z,99359.72
2018-02-07T09:45:01.511Z,99350.97
2018-02-07T09:47:29.230Z,99346.13
2018-02-07T09:49:57.048Z,99358.82
2018-02-07T09:52:24.605Z,99365.36
2018-02-07T09:54:52.585Z,99351.39
2018-02-07T09:57:20.143Z,99344.70
2018-02-07T09:59:47.706Z,99355.14
2018-02-07T10:02:15.397Z,99358.45
2018-02-07T10:04:42.970Z,99349.91
2018-02-07T10:07:10.775Z,99336.58
2018-02-07T10:09:38.469Z,99338.34
2018-02-07T10:12:06.185Z,99333.06
2018-02-07T10:14:33.731Z,99332.88
2018-02-07T10:17:01.289Z,99335.63
2018-02-07T10:19:28.861Z,99328.22
2018-02-07T10:21:56.582Z,99328.66
2018-02-07T10:24:24.197Z,99327.80
2018-02-07T10:26:51.754Z,99315.15
2018-02-07T10:29:19.537Z,99331.33
2018-02-07T10:31:47.357Z,99317.14
2018-02-07T10:34:15.073Z,99308.42
2018-02-07T10:36:42.682Z,99328.30
2018-02-07T10:39:10.300Z,99332.95
2018-02-07T10:41:37.854Z,99310.62
2018-02-07T10:44:05.645Z,99307.08
2018-02-07T10:46:33.242Z,99314.95
2018-02-07T10:49:01.082Z,99314.23
2018-02-07T10:51:28.776Z,99302.66
2018-02-07T10:53:56.487Z,99294.28
2018-02-07T10:56:24.203Z,99296.82
2018-02-07T10:58:51.774Z,99300.71
2018-02-07T11:01:19.394Z,99302.73
2018-02-07T11:03:46.930Z,99304.36
2018-02-07T11:06:14.707Z,99302.70
2018-02-07T11:08:42.273Z,99311.85
2018-02-07T11:11:09.851Z,99294.31
2018-02-07T11:13:37.430Z,99290.99
2018-02-07T11:16:05.070Z,99271.16
2018-02-07T11:18:32.700Z,99256.73
2018-02-07T11:21:00.520Z,99254.11
2018-02-07T11:23:28.074Z,99241.89
2018-02-07T11:25:55.637Z,99238.83
2018-02-07T11:28:23.206Z,99237.92
2018-02-07T11:30:50.956Z,99244.88
2018-02-07T11:33:18.501Z,99227.00
2018-02-07T11:35:46.181Z,99218.55
2018-02-07T11:38:13.738Z,99198.36
2018-02-07T11:40:41.298Z,99204.90
2018-02-07T11:43:08.872Z,99203.52
2018-02-07T11:45:36.516Z,99206.08
2018-02-07T11:48:04.067Z,99212.52
2018-02-07T11:50:31.811Z,99220.81
2018-02-07T11:52:59.688Z,99205.28
2018-02-07T11:55:27.466Z,99214.45
2018-02-07T11:57:55.023Z,99211.94
2018-02-07T12:00:22.592Z,99203.90
2018-02-07T12:02:50.321Z,99189.05
2018-02-07T12:05:17.886Z,99168.11
2018-02-07T12:07:45.625Z,99173.31
2018-02-07T12:10:13.270Z,99175.02
2018-02-07T12:12:40.879Z,99164.45
2018-02-07T12:15:08.451Z,99158.27
2018-02-07T12:17:36.025Z,99166.91
2018-02-07T12:20:03.811Z,99164.09
2018-02-07T12:22:31.448Z,99171.52
2018-02-07T12:24:59.039Z,99175.92
2018-02-07T12:27:26.713Z,99159.52
2018-02-07T12:29:54.278Z,99158.17
2018-02-07T12:32:22.036Z,99152.70
2018-02-07T12:34:49.855Z,99147.50
2018-02-07T12:37:17.462Z,99143.16
2018-02-07T12:39:45.078Z,99138.13
2018-02-07T12:42:12.722Z,99129.64
2018-02-07T12:44:40.341Z,99134.47
2018-02-07T12:47:08.144Z,99130.44
2018-02-07T12:49:35.962Z,99123.55
2018-02-07T12:52:03.694Z,99125.03
2018-02-07T12:54:31.288Z,99118.16
2018-02-07T12:56:58.867Z,99119.83
2018-02-07T12:59:26.738Z,99114.50
2018-02-07T13:01:54.362Z,99107.36
2018-02-07T13:04:21.913Z,99109.25
2018-02-07T13:06:49.504Z,99116.11
2018-02-07T13:09:17.096Z,99107.45
2018-02-07T13:11:44.649Z,99112.22
2018-02-07T13:14:12.231Z,99117.00
2018-02-07T13:16:39.775Z,99109.45
2018-02-07T13:19:07.576Z,99099.49
2018-02-07T13:21:35.171Z,99111.47
2018-02-07T13:24:02.804Z,99100.92
2018-02-07T13:26:30.530Z,99094.18
2018-02-07T13:28:58.100Z,99099.53
2018-02-07T13:31:25.866Z,99109.32
2018-02-07T13:33:53.585Z,99114.31
2018-02-07T13:36:21.406Z,99118.38
2018-02-07T13:38:49.231Z,99124.95
2018-02-07T13:41:16.828Z,99139.16
2018-02-07T13:43:44.520Z,99130.25
2018-02-07T13:46:12.094Z,99143.25
2018-02-07T13:48:39.895Z,99127.84
2018-02-07T13:51:07.446Z,99130.99
2018-02-07T13:53:35.057Z,99118.01
2018-02-07T13:56:02.645Z,99110.56
2018-02-07T13:58:30.367Z,99111.70
2018-02-07T14:00:57.977Z,99106.38
2018-02-07T14:03:25.587Z,99107.88
2018-02-07T14:05:53.212Z,99110.70
2018-02-07T14:08:20.778Z,99120.30
2018-02-07T14:10:48.546Z,99120.12
2018-02-07T14:13:16.241Z,99113.64
2018-02-07T14:15:43.829Z,99107.31
2018-02-07T14:18:11.413Z,99099.75
2018-02-07T14:20:39.012Z,99099.50
2018-02-07T14:23:06.595Z,99098.08
2018-02-07T14:25:34.363Z,99105.06
2018-02-07T14:28:02.116Z,99109.91
2018-02-07T14:30:29.677Z,99109.34
2018-02-07T14:32:57.234Z,99109.93
2018-02-07T14:35:25.037Z,99111.27
2018-02-07T14:37:52.598Z,99111.37
2018-02-07T14:40:20.262Z,99110.66
2018-02-07T14:42:47.834Z,99116.95
2018-02-07T14:45:15.608Z,99115.69
2018-02-07T14:47:43.425Z,99110.52
2018-02-07T14:50:11.042Z,99106.50
2018-02-07T14:52:38.627Z,99110.59
2018-02-07T14:55:06.202Z,99121.41
2018-02-07T14:57:33.997Z,99121.55
2018-02-07T15:00:01.571Z,99118.86
2018-02-07T15:02:29.172Z,99125.34
2018-02-07T15:04:56.951Z,99125.09
2018-02-07T15:07:24.561Z,99125.92
2018-02-07T15:09:52.388Z,99130.02
2018-02-07T15:12:19.987Z,99136.22
2018-02-07T15:14:47.559Z,99116.94
2018-02-07T15:17:15.108Z,99124.89
2018-02-07T15:19:42.744Z,99107.56
2018-02-07T15:22:10.368Z,99127.13
2018-02-07T15:24:37.972Z,99136.33
2018-02-07T15:27:05.542Z,99110.80
2018-02-07T15:29:33.117Z,99105.02
2018-02-07T15:32:00.729Z,99085.89
2018-02-07T15:34:28.285Z,99087.60
2018-02-07T15:36:55.898Z,99096.66
2018-02-07T15:39:23.472Z,99113.43
2018-02-07T15:41:51.181Z,99117.43
2018-02-07T15:44:18.745Z,99097.03
2018-02-07T15:46:46.292Z,99100.53
2018-02-07T15:49:13.862Z,99102.02
2018-02-07T15:51:41.454Z,99108.84
2018-02-07T15:54:09.069Z,99108.68
2018-02-07T15:56:36.718Z,99111.57
2018-02-07T15:59:04.289Z,99094.91
2018-02-07T16:01:31.872Z,99095.14
2018-02-07T16:03:59.679Z,99087.19
2018-02-07T16:06:27.239Z,99078.73
2018-02-07T16:08:54.793Z,99085.16
2018-02-07T16:11:22.410Z,99078.09
2018-02-07T16:13:49.975Z,99081.14
2018-02-07T16:16:17.546Z,99091.86
2018-02-07T16:18:45.171Z,99076.41
2018-02-07T16:21:12.894Z,99080.55
2018-02-07T16:23:40.723Z,99074.84
2018-02-07T16:26:08.306Z,99084.81
2018-02-07T16:28:36.159Z,99070.36
2018-02-07T16:31:03.792Z,99070.47
2018-02-07T16:33:31.386Z,99072.72
2018-02-07T16:35:59.214Z,99070.28
2018-02-07T16:38:27.035Z,99085.81
2018-02-07T16:40:54.601Z,99082.77
2018-02-07T16:43:22.259Z,99071.31
2018-02-07T16:45:49.877Z,99075.46
2018-02-07T16:48:17.429Z,99090.53
2018-02-07T16:50:45.192Z,99083.11
2018-02-07T16:53:12.790Z,99095.17
2018-02-07T16:55:40.476Z,99089.16
2018-02-07T16:58:08.069Z,99081.97
2018-02-07T17:00:35.685Z,99071.05
2018-02-07T17:03:03.298Z,99077.63
2018-02-07T17:05:30.893Z,99073.78
2018-02-07T17:07:58.449Z,99070.20
2018-02-07T17:10:26.024Z,99068.44
2018-02-07T17:12:53.676Z,99073.02
2018-02-07T17:15:21.246Z,99065.32
2018-02-07T17:17:48.797Z,99063.77
2018-02-07T17:20:16.413Z,99075.26
2018-02-07T17:22:43.974Z,99079.03
2018-02-07T17:25:11.773Z,99065.14
2018-02-07T17:27:39.359Z,99061.72
2018-02-07T17:30:07.108Z,99063.01
2018-02-07T17:32:34.734Z,99057.48
2018-02-07T17:35:02.293Z,99062.32
2018-02-07T17:37:29.967Z,99047.71
2018-02-07T17:39:57.542Z,99037.43
2018-02-07T17:42:25.299Z,99048.78
2018-02-07T17:44:52.902Z,99059.28
2018-02-07T17:47:20.515Z,99053.19
2018-02-07T17:49:48.227Z,99040.25
2018-02-07T17:52:15.795Z,99034.47
2018-02-07T17:54:43.503Z,99050.46
2018-02-07T17:57:11.140Z,99052.40
2018-02-07T17:59:38.894Z,99036.88
2018-02-07T18:02:06.490Z,99029.77
2018-02-07T18:04:34.088Z,99020.59
2018-02-07T18:07:01.649Z,98995.52
2018-02-07T18:09:29.267Z,99006.17
2018-02-07T18:11:56.821Z,99002.05
2018-02-07T18:14:24.630Z,99009.77
2018-02-07T18:16:52.298Z,99009.52
2018-02-07T18:19:19.871Z,99009.52
2018-02-07T18:21:47.462Z,99013.36
2018-02-07T18:24:15.026Z,99019.83
2018-02-07T18:26:42.823Z,99015.11
2018-02-07T18:29:10.440Z,99015.60
2018-02-07T18:31:38.179Z,99010.92
2018-02-07T18:34:05.886Z,99012.41
2018-02-07T18:36:33.694Z,99010.08
2018-02-07T18:39:01.676Z,99006.61
2018-02-07T18:41:29.398Z,98993.83
2018-02-07T18:43:57.249Z,98991.18
2018-02-07T18:46:24.825Z,98987.37
2018-02-07T18:48:52.587Z,98989.84
2018-02-07T18:51:20.153Z,98982.30
2018-02-07T18:53:47.845Z,98975.72
2018-02-07T18:56:15.425Z,98964.91
2018-02-07T18:58:43.156Z,98957.19
2018-02-07T19:01:10.805Z,98968.67
2018-02-07T19:03:38.362Z,98962.01
2018-02-07T19:06:05.998Z,98960.31
2018-02-07T19:08:33.570Z,98963.20
2018-02-07T19:11:01.312Z,98973.48
2018-02-07T19:13:28.894Z,98970.59
2018-02-07T19:15:56.478Z,98966.45
2018-02-07T19:18:24.087Z,98977.50
2018-02-07T19:20:51.718Z,98970.20
2018-02-07T19:23:19.318Z,98969.55
2018-02-07T19:25:47.035Z,98969.66
2018-02-07T19:28:14.600Z,98973.24
2018-02-07T19:30:42.164Z,98967.45
2018-02-07T19:33:09.729Z,98957.83
2018-02-07T19:35:37.369Z,98943.89
2018-02-07T19:38:04.944Z,98933.91
2018-02-07T19:40:32.661Z,98918.19
2018-02-07T19:43:00.270Z,98923.01
2018-02-07T19:45:28.006Z,98919.38
2018-02-07T19:47:55.605Z,98919.06
2018-02-07T19:50:23.209Z,98913.89
2018-02-07T19:52:50.818Z,98926.33
2018-02-07T19:55:18.374Z,98918.14
2018-02-07T19:57:45.925Z,98914.55
2018-02-07T20:00:13.492Z,98922.62
2018-02-07T20:02:41.203Z,98933.54
2018-02-07T20:05:08.921Z,98925.20
2018-02-07T20:07:36.491Z,98924.44
2018-02-07T20:10:04.116Z,98933.13
2018-02-07T20:12:31.892Z,98920.30
2018-02-07T20:14:59.446Z,98915.91
2018-02-07T20:17:27.009Z,98921.80
2018-02-07T20:19:54.746Z,98914.56
2018-02-07T20:22:22.357Z,98906.84
2018-02-07T20:24:49.934Z,98911.98
2018-02-07T20:27:17.692Z,98910.38
2018-02-07T20:29:45.419Z,98898.73
2018-02-07T20:32:12.984Z,98891.85
2018-02-07T20:34:40.716Z,98887.80
2018-02-07T20:37:08.365Z,98880.03
2018-02-07T20:39:35.948Z,98883.02
2018-02-07T20:42:03.528Z,98874.50
2018-02-07T20:44:31.149Z,98873.96
2018-02-07T20:46:58.730Z,98870.20
2018-02-07T20:49:26.342Z,98876.11
2018-02-07T20:51:53.929Z,98878.70
2018-02-07T20:54:21.487Z,98872.73
2018-02-07T20:56:49.054Z,98853.33
2018-02-07T20:59:16.632Z,98862.38
2018-02-07T21:01:44.652Z,98866.05
2018-02-07T21:04:12.210Z,98866.27
2018-02-07T21:06:39.952Z,98859.04
2018-02-07T21:09:07.535Z,98848.34
2018-02-07T21:11:35.093Z,98843.12
2018-02-07T21:14:02.645Z,98838.16
2018-02-07T21:16:30.193Z,98838.05
2018-02-07T21:18:57.927Z,98829.63
2018-02-07T21:21:25.801Z,98827.68
2018-02-07T21:23:53.358Z,98832.62
2018-02-07T21:26:20.925Z,98830.16
2018-02-07T21:28:48.623Z,98825.16
2018-02-07T21:31:16.247Z,98819.78
2018-02-07T21:33:43.955Z,98819.54
2018-02-07T21:36:11.748Z,98813.16
2018-02-07T21:38:39.296Z,98816.05
2018-02-07T21:41:06.853Z,98820.51
2018-02-07T21:43:34.452Z,98818.43
2018-02-07T21:46:02.275Z,98806.31
2018-02-07T21:48:29.880Z,98785.48
2018-02-07T21:50:57.569Z,98798.59
2018-02-07T21:53:25.430Z,98793.54
2018-02-07T21:55:52.985Z,98808.70
2018-02-07T21:58:20.542Z,98803.94
2018-02-07T22:00:48.259Z,98801.06
2018-02-07T22:03:15.802Z,98793.34
2018-02-07T22:05:43.366Z,98787.61
2018-02-07T22:08:10.917Z,98786.48
2018-02-07T22:10:38.688Z,98779.59
2018-02-07T22:13:06.226Z,98769.48
2018-02-07T22:15:33.781Z,98765.48
2018-02-07T22:18:01.349Z,98776.25
2018-02-07T22:20:28.911Z,98767.89
2018-02-07T22:22:56.474Z,98776.70
2018-02-07T22:25:24.261Z,98762.12
2018-02-07T22:27:51.965Z,98763.92
2018-02-07T22:30:19.518Z,98758.95
2018-02-07T22:32:47.316Z,98756.23
2018-02-07T22:35:15.134Z,98752.01
2018-02-07T22:37:42.690Z,98742.45
2018-02-07T22:40:10.470Z,98736.62
2018-02-07T22:42:38.021Z,98736.11
2018-02-07T22:45:05.809Z,98724.47
2018-02-07T22:47:33.365Z,98723.47
2018-02-07T22:50:00.923Z,98723.50
2018-02-07T22:52:28.555Z,98719.22
2018-02-07T22:54:56.186Z,98704.70
2018-02-07T22:57:23.996Z,98702.84
2018-02-07T22:59:51.550Z,98693.98
2018-02-07T23:02:19.217Z,98683.72
2018-02-07T23:04:46.931Z,98687.53
2018-02-07T23:07:14.489Z,98672.61
2018-02-07T23:09:42.043Z,98670.30
2018-02-07T23:12:09.594Z,98652.53
2018-02-07T23:14:37.197Z,98628.27
2018-02-07T23:17:04.749Z,98636.64
2018-02-07T23:19:32.562Z,98639.09
2018-02-07T23:22:00.275Z,98648.36
2018-02-07T23:24:27.987Z,98638.41
2018-02-07T23:26:55.550Z,98636.31
2018-02-07T23:29:23.329Z,98619.67
2018-02-07T23:31:50.879Z,98608.77
2018-02-07T23:34:18.443Z,98606.31
2018-02-07T23:36:46.283Z,98597.45
2018-02-07T23:39:14.001Z,98586.38
2018-02-07T23:41:41.552Z,98582.22
2018-02-07T23:44:09.343Z,98585.22
2018-02-07T23:46:36.893Z,98595.09
2018-02-07T23:49:04.673Z,98597.63
2018-02-07T23:51:32.229Z,98614.14
2018-02-07T23:53:59.982Z,98622.53
2018-02-07T23:56:27.699Z,98617.02
2018-02-07T23:58:55.425Z,98618.52
